Date,TemperatureHighF,TemperatureAvgF,TemperatureLowF,DewpointHighF,DewpointAvgF,DewpointLowF,HumidityHigh,HumidityAvg,HumidityLow,PressureMaxIn,PressureMinIn,WindSpeedMaxMPH,WindSpeedAvgMPH,GustSpeedMaxMPH,PrecipitationSumIn
2013-1-1,44,41,37,42,34,25,97,78,55,29.99,29.83,6,0,15,0.15
2013-1-2,44,38,35,32,29,27,75,69,63,30.09,29.97,2,0,5,0.09
2013-1-3,40,35,27,31,27,20,89,73,61,30.18,30.07,1,0,4,0.00
2013-1-4,45,33,25,20,18,14,77,55,29,30.23,30.11,15,2,19,0.00
2013-1-5,46,37,25,31,21,16,75,54,31,30.30,30.12,2,0,9,0.00
2013-1-6,52,41,35,34,31,26,88,69,51,30.12,29.93,4,0,12,0.02
2013-1-7,45,38,32,26,25,24,74,61,45,30.34,30.30,0,0,3,0.00
2013-1-8,45,43,41,37,36,35,82,77,71,30.31,30.28,0,0,2,0.00
2013-1-9,58,53,50,48,46,45,85,78,68,30.31,30.25,1,0,6,0.00
2013-1-10,53,46,43,34,31,28,71,56,39,30.37,30.33,0,0,1,0.00
2013-1-11,42,41,40,42,40,39,98,97,97,30.11,30.06,1,0,4,0.09
2013-1-12,61,51,42,56,49,42,99,94,81,30.06,29.97,3,0,6,0.00
2013-1-13,69,59,51,59,54,50,99,87,66,29.99,29.90,6,2,20,0.01
2013-1-14,60,54,47,59,53,47,98,98,98,30.08,29.95,4,1,9,1.48
2013-1-15,47,40,37,46,39,36,98,98,98,30.15,30.01,3,1,13,1.03
2013-1-16,45,40,36,45,40,35,99,98,98,30.01,29.86,2,0,6,0.50
2013-1-17,46,38,30,46,38,30,99,97,96,30.09,29.84,10,2,19,1.33
2013-1-18,40,32,26,30,25,20,97,78,46,30.45,30.08,2,0,8,0.44
2013-1-19,49,36,25,30,25,22,89,68,38,30.40,30.03,4,1,14,0.07
2013-1-20,57,41,28,33,26,21,84,60,29,30.03,29.90,5,1,18,0.00
2013-1-21,55,45,35,28,16,9,36,31,27,29.87,29.78,7,3,26,0.00
2013-1-22,31,25,21,-1,-6,-10,36,26,17,30.20,30.10,5,1,18,0.00
2013-1-23,36,31,26,16,12,9,65,46,34,30.15,29.99,2,0,10,0.00
2013-1-24,26,22,19,4,1,-2,48,40,30,30.43,30.35,3,0,7,0.00
2013-1-25,22,21,20,20,17,9,90,83,59,30.28,30.03,4,0,16,0.00
2013-1-26,37,28,19,27,22,16,92,79,57,30.31,30.01,2,0,8,0.08
2013-1-27,38,30,22,25,21,16,78,69,57,30.50,30.31,3,0,10,0.01
2013-1-28,47,43,39,37,36,32,92,77,58,30.28,30.12,5,2,20,0.03
2013-1-29,66,59,56,52,51,48,82,74,54,29.98,29.92,3,1,13,0.00
2013-1-30,68,64,58,59,57,55,96,79,65,29.51,29.25,8,5,28,0.81
2013-1-31,43,35,28,21,18,15,72,52,37,29.89,29.76,11,3,30,0.06
2013-2-1,31,26,19,5,1,-1,52,35,26,30.30,30.16,6,2,20,0.00
2013-2-2,35,27,16,22,10,3,71,50,31,30.31,29.93,4,1,15,0.00
2013-2-3,44,35,28,24,22,17,83,60,41,29.93,29.74,7,2,24,0.00
2013-2-4,43,37,32,23,21,18,69,53,36,29.92,29.89,3,1,15,0.00
2013-2-5,57,48,41,33,30,29,65,50,38,29.86,29.77,5,2,17,0.00
2013-2-6,56,45,38,23,21,17,55,40,24,30.16,30.03,1,0,5,0.00
2013-2-7,36,34,33,33,32,31,95,92,86,30.13,30.00,3,2,10,0.37
2013-2-8,54,44,36,42,28,22,65,53,38,29.97,29.73,9,4,28,0.19
2013-2-9,52,37,26,23,16,8,75,46,18,30.25,29.97,3,0,10,0.00
2013-2-10,50,37,26,34,18,9,86,47,25,30.39,30.11,4,1,17,0.06
2013-2-11,52,50,46,50,48,38,97,93,72,29.85,29.80,3,2,13,0.08
2013-2-12,57,50,38,33,24,17,62,38,21,29.97,29.82,5,1,18,0.00
2013-2-13,43,40,36,42,36,29,96,87,71,29.72,29.55,4,1,19,0.27
2013-2-14,51,43,35,30,28,22,77,57,35,29.94,29.86,3,1,12,0.01
2013-2-15,59,43,29,36,29,25,89,62,28,30.00,29.81,5,1,21,0.00
2013-2-16,38,33,26,30,22,9,90,65,40,29.88,29.75,6,1,14,0.01
2013-2-17,33,26,20,12,4,-1,59,39,25,30.18,29.85,8,3,24,0.00
2013-2-18,52,34,19,22,13,3,64,45,24,30.30,30.08,4,1,16,0.00
2013-2-19,43,36,30,40,28,10,96,74,30,30.09,29.75,6,1,21,0.11
2013-2-20,49,38,28,15,7,-1,51,30,13,30.06,29.89,7,3,22,0.00
2013-2-21,52,37,22,21,13,9,61,39,19,30.17,30.01,2,0,10,0.00
2013-2-22,40,32,29,30,28,18,96,87,41,30.23,30.05,0,0,4,0.15
2013-2-23,45,37,31,40,35,30,97,93,80,30.07,29.72,2,0,6,0.16
2013-2-24,58,46,34,39,27,16,97,57,22,29.94,29.71,7,2,19,0.00
2013-2-25,39,33,28,22,20,18,75,59,42,30.13,29.94,2,0,7,0.00
2013-2-26,36,32,29,35,29,20,97,88,63,30.07,29.51,4,1,12,0.84
2013-2-27,55,42,34,40,34,30,98,77,41,29.68,29.54,4,1,18,0.03
2013-2-28,45,39,34,34,25,21,77,60,39,29.77,29.58,8,2,27,0.00
2013-3-1,41,37,34,27,24,20,75,58,48,29.82,29.74,3,1,10,0.00
2013-3-2,43,34,27,24,20,14,79,58,38,29.84,29.72,6,1,19,0.00
2013-3-3,40,31,24,19,14,10,62,49,35,29.90,29.78,6,2,15,0.00
2013-3-4,48,41,37,11,7,5,33,24,18,29.97,29.92,2,0,12,0.00
2013-3-5,45,40,37,40,38,36,96,93,72,29.77,29.54,4,1,7,0.62
2013-3-6,42,36,34,25,24,24,67,61,49,29.98,29.79,9,4,21,0.17
2013-3-7,45,37,31,25,22,20,64,55,45,30.17,30.07,5,2,14,0.00
2013-3-8,46,40,35,22,22,20,58,48,35,30.22,30.13,7,2,14,0.00
2013-3-9,60,44,30,28,24,21,71,47,24,30.25,30.13,2,0,7,0.00
2013-3-10,64,49,32,32,28,23,74,46,26,30.20,30.08,4,1,14,0.00
2013-3-11,61,60,58,48,47,46,68,63,58,29.85,29.77,4,2,19,0.00
2013-3-12,60,52,44,36,32,28,54,45,36,29.86,29.70,5,2,16,0.55
2013-3-13,46,40,33,21,17,14,48,41,32,30.05,29.90,8,5,26,0.00
2013-3-14,48,45,40,15,12,10,31,26,21,30.11,30.04,6,3,20,0.00
2013-3-15,60,52,46,34,32,29,61,46,32,29.81,29.77,4,1,18,0.00
2013-3-16,76,58,40,48,40,32,79,53,29,29.77,29.51,7,2,28,0.00
2013-3-17,60,46,35,48,42,33,95,84,66,30.07,29.70,4,1,10,0.00
2013-3-18,35,34,33,34,33,32,96,96,96,29.96,29.80,2,0,6,0.09
2013-3-19,60,54,45,22,12,1,24,19,14,29.94,29.77,8,5,27,0.01
2013-3-20,54,49,45,17,13,8,31,24,16,29.77,29.69,4,1,19,0.00
2013-3-21,32,29,26,8,7,2,45,39,28,29.90,29.80,5,2,15,0.00
2013-3-22,48,41,36,17,13,8,45,32,20,29.91,29.86,2,0,9,0.00
2013-3-23,54,42,34,31,22,11,66,45,28,29.96,29.80,3,0,11,0.00
2013-3-24,41,34,30,33,30,27,96,85,58,29.82,29.48,4,1,11,0.42
2013-3-25,43,39,34,23,20,19,58,47,39,29.70,29.51,8,4,24,0.04
2013-3-26,41,38,34,24,22,21,63,53,46,30.04,29.92,4,2,14,0.00
2013-3-27,45,39,32,20,18,15,59,44,32,30.16,30.09,6,2,16,0.00
2013-3-28,53,40,29,23,20,17,69,47,26,30.19,30.08,7,2,17,0.00
2013-3-29,58,45,31,24,20,17,62,40,21,30.24,30.05,5,1,15,0.00
2013-3-30,62,50,36,32,25,20,67,40,21,30.13,29.96,3,0,12,0.00
2013-3-31,62,51,44,51,44,32,97,79,54,29.96,29.67,4,1,16,0.24
2013-4-1,63,57,45,39,34,31,60,44,38,29.85,29.73,7,4,24,0.00
2013-4-2,56,51,47,16,14,11,27,22,17,30.01,29.95,4,1,16,0.00
2013-4-3,48,46,44,15,14,11,28,27,25,30.20,30.13,1,0,3,0.00
2013-4-4,32,31,31,30,30,29,96,94,89,30.13,29.93,4,2,10,0.69
2013-4-5,64,56,50,30,28,21,42,34,20,29.93,29.79,5,2,14,0.01
2013-4-6,62,51,36,31,27,25,71,42,26,30.15,29.93,3,1,12,0.00
2013-4-7,70,54,39,43,36,27,79,53,31,30.14,29.97,6,2,22,0.00
2013-4-8,77,71,62,50,48,46,60,44,35,29.96,29.90,6,2,19,0.00
2013-4-9,82,73,66,52,50,46,61,45,28,29.95,29.92,5,1,15,0.00
2013-4-10,84,78,68,54,52,49,59,41,30,29.89,29.80,5,2,19,0.00
2013-4-11,79,73,69,57,56,52,66,55,40,29.69,29.62,5,2,23,0.00
2013-4-12,78,70,57,62,46,34,68,44,28,29.65,29.46,6,3,19,0.93
2013-4-13,74,59,43,40,33,26,70,40,18,29.90,29.65,5,1,20,0.00
2013-4-14,77,63,46,43,34,28,62,37,18,29.98,29.87,3,1,14,0.00
2013-4-15,63,58,52,54,53,52,97,84,71,30.10,30.00,1,0,5,0.09
2013-4-16,76,71,65,57,56,54,74,60,47,30.10,30.05,1,0,10,0.00
2013-4-17,77,70,64,57,56,54,73,60,47,30.02,29.99,1,0,6,0.00
2013-4-18,76,72,68,57,54,51,67,55,43,29.92,29.87,4,1,15,0.00
2013-4-19,73,62,53,64,57,41,95,86,65,29.74,29.56,8,2,25,0.18
2013-4-20,62,51,41,42,31,24,76,49,25,30.18,29.74,5,1,17,0.00
2013-4-21,58,48,39,36,31,26,77,53,35,30.41,30.18,3,0,13,0.00
2013-4-22,58,53,49,34,30,24,55,41,27,30.20,30.18,0,0,5,0.00
2013-4-23,67,62,56,46,45,42,70,55,42,30.02,29.99,1,0,8,0.00
2013-4-24,69,65,60,52,52,51,75,62,54,29.88,29.85,3,1,17,0.00
2013-4-25,68,59,48,36,26,21,57,30,17,30.19,30.07,2,0,7,0.00
2013-4-26,67,55,40,44,32,26,72,44,24,30.33,30.19,2,0,10,0.00
2013-4-27,67,56,49,51,46,37,92,69,43,30.24,30.15,1,0,7,0.03
2013-4-28,53,52,50,52,50,49,97,95,90,30.15,29.96,2,0,15,0.91
2013-4-29,65,60,55,55,54,52,93,81,65,29.92,29.87,0,0,2,0.28
2013-4-30,66,61,53,56,54,50,92,76,67,30.09,29.99,1,0,7,0.00
2013-5-1,63,58,55,52,50,49,84,76,65,30.23,30.15,1,0,13,0.00
2013-5-2,58,55,50,52,50,47,91,84,78,30.20,30.16,0,0,4,0.00
2013-5-3,60,55,50,49,45,41,74,70,64,30.11,30.07,1,0,10,0.00
2013-5-4,58,50,45,47,42,38,83,74,56,30.11,30.00,3,0,13,0.00
2013-5-10,80,68,52,60,56,49,92,67,41,29.94,29.79,2,0,17,0.06
2013-5-11,76,66,61,60,59,57,93,77,54,29.81,29.67,2,0,13,0.01
2013-5-12,66,59,48,59,41,28,94,56,25,29.94,29.69,4,1,17,0.00
2013-5-13,64,57,45,35,28,22,67,35,21,30.07,29.94,3,1,14,0.00
2013-5-14,68,62,53,44,41,37,65,47,32,29.99,29.94,2,1,14,0.00
2013-5-15,86,78,70,61,59,58,68,54,39,29.81,29.76,2,1,16,0.00
2013-5-16,77,72,67,62,59,57,71,64,50,29.86,29.80,1,0,9,0.00
2013-5-17,82,72,62,64,61,56,95,72,41,29.97,29.90,1,0,9,0.26
2013-5-18,68,63,59,64,61,58,98,94,82,30.06,29.96,0,0,5,0.14
2013-5-19,71,65,61,67,63,60,98,95,86,30.02,29.93,0,0,6,0.52
2013-5-20,76,69,65,69,64,62,96,86,70,29.95,29.90,1,0,7,1.07
2013-5-21,79,74,70,68,67,65,88,78,64,29.84,29.79,1,0,9,0.00
2013-5-22,81,73,63,68,64,60,95,74,59,29.86,29.75,2,1,11,0.18
2013-5-23,74,68,61,65,62,59,95,83,71,29.78,29.69,3,0,15,0.21
2013-5-24,64,56,46,42,38,36,75,53,38,30.10,29.98,2,0,9,0.00
2013-5-25,73,56,40,44,36,28,86,52,20,30.17,30.04,2,0,14,0.00
2013-5-26,72,60,50,51,44,36,78,57,36,30.17,30.05,2,0,12,0.00
2013-5-27,77,72,62,58,55,50,74,55,41,30.13,30.02,2,0,11,0.00
2013-5-28,81,76,66,61,60,59,82,60,47,30.03,30.00,2,1,14,0.00
2013-5-29,82,74,67,61,60,59,78,62,48,30.06,30.02,1,0,9,0.00
2013-5-30,82,75,66,61,60,58,79,60,43,30.07,30.05,0,0,5,0.00
2013-5-31,82,76,66,65,61,59,84,63,47,30.02,29.97,1,0,11,0.00
2013-6-1,84,72,64,66,61,57,96,72,41,29.99,29.88,2,1,15,0.00
2013-6-2,78,69,64,66,64,60,98,84,65,29.89,29.78,2,0,13,1.90
2013-6-3,79,72,66,68,66,62,94,82,61,29.83,29.71,1,0,8,0.07
2013-6-4,74,70,63,63,61,60,90,74,64,29.99,29.93,1,0,6,0.00
2013-6-5,66,65,63,60,60,59,89,85,81,29.98,29.92,1,0,5,0.00
2013-6-6,65,64,63,64,64,63,98,98,98,29.73,29.70,0,0,2,1.49
2013-6-7,74,70,65,69,67,63,95,90,79,29.71,29.52,1,0,7,0.27
2013-6-8,79,69,59,64,61,57,96,79,50,29.97,29.71,1,0,9,0.23
2013-6-9,85,72,61,69,64,60,97,80,48,30.04,29.92,2,0,16,0.19
2013-6-10,78,72,66,71,67,64,95,87,73,29.85,29.74,2,0,17,0.99
2013-6-11,81,75,67,63,61,60,82,64,50,29.85,29.78,0,0,8,0.02
2013-6-12,89,83,75,75,72,70,87,70,57,29.76,29.73,1,0,10,0.00
2013-6-13,85,70,67,68,61,54,81,75,58,29.64,29.47,2,0,12,0.01
2013-6-14,77,67,57,58,54,51,85,64,44,29.92,29.64,3,0,14,0.00
2013-6-15,81,69,55,61,56,51,88,65,41,30.02,29.91,1,0,10,0.00
2013-6-16,83,72,62,67,62,58,88,72,52,29.99,29.87,2,0,15,0.00
2013-6-17,77,74,70,68,67,65,88,79,68,29.83,29.81,0,0,4,0.03
2013-6-18,69,68,65,67,66,64,96,94,90,29.78,29.69,0,0,3,0.72
2013-6-19,77,72,66,65,64,62,90,76,60,29.99,29.91,1,0,7,0.00
2013-6-21,79,70,61,62,58,56,85,70,52,30.12,30.09,1,0,5,0.00
2013-6-22,81,69,60,68,62,55,95,80,59,30.14,30.00,0,0,5,0.00
2013-6-23,85,74,63,69,65,61,97,76,45,30.09,29.99,1,0,10,0.00
2013-6-24,84,77,72,71,68,67,85,74,59,29.98,29.94,2,0,13,0.00
2013-6-25,86,78,72,70,68,67,83,73,55,29.90,29.86,1,0,9,0.00
2013-6-26,68,67,66,65,65,64,95,92,88,29.83,29.80,0,0,4,0.03
2013-6-28,78,74,68,70,67,64,89,80,72,29.53,29.46,1,0,9,0.05
2013-6-29,83,73,65,68,66,63,97,78,53,29.58,29.47,2,0,11,0.00
2013-6-30,83,73,68,71,67,65,96,84,59,29.72,29.57,2,0,10,0.04
2013-7-1,79,75,71,68,67,66,86,77,66,29.85,29.77,1,0,11,0.05
2013-7-2,72,70,69,68,67,66,92,91,87,30.05,29.97,1,0,12,0.06
2013-7-3,78,72,70,72,71,69,97,94,79,30.10,30.06,1,0,6,0.52
2013-7-4,84,73,68,74,69,67,98,89,59,30.14,30.05,1,0,24,0.30
2013-7-5,82,75,69,72,70,68,95,83,63,30.10,30.05,1,0,10,0.01
2013-7-6,82,74,68,70,68,66,98,84,58,30.13,29.99,1,0,10,0.47
2013-7-7,81,72,67,74,69,65,98,90,68,30.07,29.95,1,0,14,1.00
2013-7-8,83,79,72,70,68,65,89,69,55,30.02,29.97,1,0,5,0.71
2013-7-9,84,79,74,73,71,70,89,78,65,29.96,29.92,0,0,2,0.00
2013-7-10,82,77,72,73,70,67,87,79,71,29.85,29.81,1,0,7,0.00
2013-7-11,69,69,69,68,68,67,97,96,94,29.78,29.76,0,0,4,0.31
2013-7-12,65,65,65,63,63,63,94,94,93,29.93,29.92,0,0,1,0.05
2013-7-13,75,69,65,69,66,63,98,92,80,30.05,29.93,0,0,7,0.07
2013-7-14,83,74,69,70,68,67,98,83,59,30.19,30.05,2,0,16,0.18
2013-7-15,85,81,72,71,68,64,87,65,51,30.22,30.13,1,0,9,0.00
2013-7-16,90,84,75,74,70,66,84,64,47,30.16,30.07,1,0,7,0.00
2013-7-17,88,81,76,74,72,69,88,74,60,30.04,29.99,1,0,5,0.01
2013-7-18,89,87,84,72,70,68,65,58,51,29.95,29.91,0,0,0,0.00
2013-7-19,86,80,74,72,71,70,89,75,58,29.89,29.84,0,0,0,0.00
2013-7-20,85,74,71,72,70,65,94,85,58,29.88,29.79,0,0,0,0.02
2013-7-21,86,73,67,73,69,66,97,88,57,29.86,29.81,0,0,0,0.37
2013-7-22,80,75,72,70,70,69,93,83,70,29.72,29.70,0,0,0,0.00
2013-7-23,85,80,74,71,69,67,80,70,57,29.65,29.61,0,0,0,0.00
2013-7-24,82,77,72,67,66,64,80,69,59,29.72,29.65,0,0,0,0.00
2013-7-25,76,71,67,66,65,64,91,80,67,29.92,29.85,0,0,0,0.19
2013-7-26,80,74,67,66,64,63,90,74,56,29.92,29.90,0,0,0,0.00
2013-7-27,69,67,64,68,65,62,97,95,91,29.93,29.83,0,0,0,1.08
2013-7-28,82,72,66,69,66,64,98,84,56,29.87,29.79,0,0,0,0.00
2013-7-29,79,72,66,63,61,58,82,70,50,30.07,29.97,0,0,0,0.00
2013-7-30,77,73,68,67,66,64,89,79,65,30.05,30.03,0,0,0,0.00
2013-7-31,71,68,66,67,65,65,95,91,86,29.91,29.89,0,0,0,0.02
2013-8-1,83,79,71,70,68,64,89,70,55,29.81,29.74,0,0,0,0.15
2013-8-2,83,76,70,69,66,63,89,74,53,29.90,29.86,0,0,0,0.00
2013-8-3,84,74,66,70,67,64,95,79,53,29.90,29.79,0,0,0,0.00
2013-8-4,81,72,67,69,64,56,98,77,44,29.89,29.79,0,0,0,0.07
2013-8-5,78,73,67,66,65,63,93,75,63,29.94,29.88,0,0,0,0.13
2013-8-6,76,71,63,68,65,62,96,82,75,29.94,29.89,0,0,0,0.01
2013-8-7,72,71,70,68,67,66,89,87,86,29.92,29.91,0,0,0,0.00
2013-8-8,81,76,72,72,71,70,95,84,70,29.90,29.87,0,0,0,0.06
2013-8-9,86,78,70,72,70,67,94,79,60,29.92,29.84,0,0,0,0.03
2013-8-10,86,73,68,74,69,67,98,89,59,29.96,29.90,0,0,1,0.14
2013-8-11,85,73,66,73,69,65,98,89,60,30.00,29.91,1,0,7,0.31
2013-8-13,78,74,71,70,70,68,91,86,76,29.74,29.68,0,0,6,0.00
2013-8-14,73,66,60,57,56,55,88,73,55,29.98,29.89,0,0,3,0.00
2013-8-15,67,61,57,55,55,54,90,80,65,30.04,30.00,0,0,0,0.00
2013-8-16,69,62,56,58,56,54,93,82,66,30.09,30.03,0,0,4,0.00
2013-8-17,62,59,55,60,57,53,99,95,88,30.12,30.05,0,0,7,0.57
2013-8-18,71,64,61,66,62,60,99,94,79,30.13,30.03,0,0,5,0.65
2013-8-19,72,69,65,67,66,64,96,89,79,30.01,29.98,0,0,5,0.34
2013-8-20,78,74,69,68,67,66,94,82,68,30.06,30.01,0,0,4,0.00
2013-8-21,81,77,72,72,71,69,94,82,68,30.03,29.98,1,0,9,0.00
2013-8-23,80,70,61,69,65,60,97,83,61,30.00,29.83,1,0,6,0.35
2013-8-24,77,65,58,63,59,54,98,82,48,30.20,30.00,1,0,7,0.01
2013-8-25,77,66,56,62,58,54,96,78,49,30.29,30.19,0,0,7,0.00
2013-8-26,80,72,65,64,62,58,88,71,47,30.04,30.00,0,0,4,0.00
2013-8-27,84,78,72,72,70,67,86,77,62,29.88,29.85,0,0,2,0.00
2013-8-28,81,77,74,72,71,70,89,82,75,29.78,29.75,1,0,10,0.00
2013-8-29,82,75,70,71,69,67,89,81,68,29.90,29.81,1,0,6,0.02
2013-8-30,83,76,68,68,66,64,92,73,56,29.89,29.82,1,0,7,0.00
2013-8-31,85,72,65,71,66,63,97,85,58,29.83,29.74,3,0,13,0.10
2013-9-1,84,71,65,72,68,64,99,90,64,29.78,29.67,1,0,9,0.07
2013-9-2,86,74,65,72,68,64,99,83,51,29.77,29.68,1,0,10,0.01
2013-9-3,85,75,68,70,67,62,96,79,55,29.83,29.67,1,0,5,0.00
2013-9-4,81,73,63,63,60,57,89,66,45,29.98,29.92,1,0,6,0.00
2013-9-5,83,75,69,64,61,58,74,62,45,29.97,29.93,0,0,4,0.00
2013-9-6,76,67,58,59,57,55,90,72,51,30.04,30.00,1,0,4,0.00
2013-9-7,79,66,55,64,59,53,95,80,55,30.03,29.86,2,0,10,0.00
2013-9-8,83,72,61,67,63,59,93,76,51,29.86,29.81,0,0,4,0.00
2013-9-9,80,74,69,69,68,66,92,81,64,30.03,29.98,0,0,3,0.00
2013-9-10,84,77,72,70,68,67,86,75,57,30.09,30.02,1,0,6,0.00
2013-9-11,79,74,70,70,69,67,91,84,74,29.98,29.95,0,0,2,0.00
2013-9-12,77,71,66,73,68,64,96,90,82,29.76,29.71,1,0,9,0.25
2013-9-13,74,65,58,54,50,47,67,59,45,29.82,29.70,1,0,9,0.00
2013-9-14,72,60,50,54,49,46,90,70,41,30.04,29.82,1,0,7,0.00
2013-9-15,76,61,49,60,53,47,96,77,50,30.14,30.02,1,0,10,0.00
2013-9-16,72,69,66,62,60,57,75,73,70,30.07,29.98,0,0,0,0.00
2013-9-17,70,61,55,53,52,50,85,73,53,30.19,30.15,0,0,4,0.00
2013-9-19,69,66,63,61,60,60,90,83,75,29.99,29.98,0,0,0,0.00
2013-9-20,68,65,64,64,63,63,96,94,89,29.89,29.85,0,0,1,0.17
2013-9-21,70,64,60,68,63,59,98,97,88,29.85,29.59,2,0,13,0.60
2013-9-22,72,62,54,59,55,53,98,81,51,29.79,29.63,0,0,1,0.01
2013-9-23,62,61,60,54,53,53,80,74,72,29.92,29.92,0,0,1,0.00
2013-9-25,65,61,58,60,59,57,96,93,80,29.81,29.79,0,0,1,0.08
2013-9-26,65,60,55,53,52,50,88,76,61,29.93,29.88,0,0,0,0.00
2013-9-27,71,62,54,54,53,52,92,74,51,30.10,30.02,0,0,1,0.00
2013-9-28,66,57,51,56,51,49,97,83,59,30.17,30.09,1,0,7,0.00
2013-9-29,70,58,50,54,51,48,95,80,54,30.10,29.94,0,0,0,0.00
2013-10-1,75,69,62,59,58,56,85,69,56,29.96,29.92,0,0,0,0.00
2013-10-2,75,68,62,60,59,58,85,73,59,29.98,29.95,0,0,0,0.00
2013-10-3,82,73,62,60,58,56,87,63,43,29.98,29.93,0,0,0,0.00
2013-10-4,68,61,58,64,58,56,96,92,84,30.02,29.97,0,0,0,0.00
2013-10-5,85,72,61,65,61,58,91,72,43,30.01,29.91,0,0,0,0.00
2013-10-6,80,69,59,64,61,58,96,77,51,29.93,29.80,2,0,11,0.00
2013-10-8,62,55,50,47,46,44,80,72,57,30.14,30.08,0,0,2,0.00
2013-10-9,65,58,53,48,47,45,77,66,54,30.08,30.06,1,0,6,0.00
2013-10-10,64,62,61,56,56,56,84,80,76,29.89,29.87,0,0,3,0.07
2013-10-11,69,65,62,61,59,58,89,82,73,29.87,29.81,0,0,3,0.00
2013-10-12,65,61,58,62,58,54,96,89,77,30.00,29.86,1,0,5,0.04
2013-10-13,64,60,58,60,58,56,98,95,86,30.14,30.00,0,0,10,0.08
2013-10-15,68,61,57,54,53,50,88,75,52,30.00,29.98,0,0,2,0.00
2013-10-16,71,65,60,57,56,55,88,74,58,29.88,29.84,1,0,6,0.00
2013-10-17,63,62,62,61,61,61,97,96,94,29.77,29.72,1,0,4,0.09
2013-10-18,64,55,50,51,49,47,92,79,55,29.90,29.86,0,0,3,0.01
2013-10-19,58,53,48,56,51,47,97,94,89,29.89,29.73,1,0,5,0.02
2013-10-20,61,49,39,49,38,31,97,69,33,30.02,29.83,1,0,6,0.00
2013-10-21,62,54,50,49,47,47,88,78,59,29.94,29.91,0,0,4,0.00
2013-10-22,57,55,53,51,50,50,89,84,79,29.74,29.71,0,0,0,0.00
2013-10-23,56,47,41,31,30,29,64,53,38,29.91,29.69,6,2,21,0.00
2013-10-24,54,44,38,32,30,28,78,58,37,30.08,29.98,4,1,18,0.00
2013-10-25,46,38,31,26,25,24,77,61,42,30.29,30.24,1,0,7,0.00
2013-10-26,54,41,26,33,27,22,86,60,35,30.28,29.95,3,1,15,0.00
2013-10-27,64,50,38,40,36,32,82,60,35,30.03,29.93,3,0,13,0.00
2013-10-28,66,58,48,52,50,44,86,75,54,30.16,30.11,1,0,6,0.00
2013-10-29,69,62,52,53,50,48,90,67,50,30.24,30.13,1,0,9,0.00
2013-10-30,65,63,62,56,55,55,80,75,72,30.08,30.07,0,0,0,0.00
2013-10-31,66,63,61,55,54,53,79,72,63,29.89,29.78,3,0,11,0.00
2013-11-1,67,60,53,61,56,52,97,88,79,29.63,29.52,2,0,13,0.14
2013-11-2,67,55,45,53,41,30,98,65,28,29.87,29.59,5,1,18,0.01
2013-11-3,59,48,39,35,32,29,79,56,33,30.27,29.87,5,1,15,0.00
2013-11-4,50,42,37,32,29,27,68,60,42,30.47,30.39,0,0,4,0.00
2013-11-5,55,50,48,42,41,39,77,70,62,30.39,30.36,0,0,4,0.00
2013-11-6,53,52,51,48,47,45,83,82,80,30.03,30.03,0,0,0,0.00
2013-11-7,52,46,42,32,29,28,58,51,45,30.02,29.93,3,1,12,0.00
2013-11-8,50,40,33,23,21,19,66,48,29,30.23,30.16,1,0,5,0.00
2013-11-9,52,40,28,28,24,19,76,55,32,30.28,30.07,3,0,10,0.00
2013-11-10,66,49,34,36,26,17,73,45,20,30.15,29.98,8,2,21,0.00
2013-11-11,54,45,40,26,24,21,55,44,27,30.10,30.04,1,0,4,0.00
2013-11-12,37,33,29,23,16,13,57,49,44,30.35,30.18,6,3,21,0.00
2013-11-13,38,34,30,15,11,8,51,39,30,30.41,30.39,0,0,3,0.00
2013-11-14,56,45,38,20,18,15,43,35,20,30.24,30.22,2,0,10,0.00
2013-11-15,57,52,47,45,41,38,92,68,53,30.15,30.11,1,0,3,0.01
2013-11-16,55,51,47,53,49,45,97,94,89,30.18,30.10,0,0,3,0.00
2013-11-17,61,56,53,58,54,52,98,95,84,30.12,29.77,2,0,7,0.00
2013-11-18,63,56,50,30,27,24,42,33,27,29.89,29.75,4,2,14,0.00
2013-11-19,49,42,39,26,25,24,59,51,37,30.21,30.06,0,0,3,0.00
2013-11-20,45,41,38,27,26,25,58,55,48,30.38,30.31,0,0,2,0.00
2013-11-21,49,47,47,40,40,40,77,75,72,30.33,30.30,0,0,3,0.00
2013-11-22,60,54,47,55,49,40,96,83,75,30.31,29.98,4,1,16,0.00
2013-11-23,58,50,35,54,34,12,97,59,24,30.12,29.96,6,2,19,0.00
2013-11-24,35,29,24,18,3,-5,49,34,19,30.46,30.12,7,3,19,0.00
2013-11-26,42,40,38,41,40,38,98,98,98,29.66,29.54,5,1,9,0.49
2013-11-27,36,29,25,23,15,11,59,54,52,30.09,29.70,6,3,19,0.20
2013-11-28,41,29,19,18,15,11,79,57,33,30.38,30.09,2,0,6,0.00
2013-11-29,48,34,24,24,19,15,72,55,33,30.55,30.37,2,0,7,0.00
2013-11-30,43,32,25,22,20,18,78,62,39,30.59,30.29,1,0,5,0.00
2013-12-1,54,37,23,29,24,18,84,61,33,30.29,29.92,2,0,10,0.00
2013-12-2,56,44,30,36,31,25,85,64,41,29.92,29.73,2,0,7,0.00
2013-12-3,55,51,48,45,44,43,86,77,66,29.88,29.80,0,0,4,0.00
2013-12-4,58,55,54,53,53,52,96,93,82,29.94,29.88,1,0,7,0.02
2013-12-5,62,61,61,61,61,60,99,99,99,29.91,29.89,2,1,11,0.07
2013-12-6,73,69,60,62,60,57,91,72,63,29.89,29.79,8,3,25,0.21
2013-12-7,60,46,39,57,39,32,96,78,63,30.37,29.87,4,1,11,0.08
2013-12-8,39,32,30,32,29,27,96,89,72,30.38,30.24,1,0,11,0.39
2013-12-9,40,39,35,40,39,35,98,98,98,30.02,29.98,1,0,9,0.26
2013-12-10,44,34,28,29,23,19,81,64,50,30.21,30.00,7,2,22,0.36
2013-12-11,46,38,32,25,22,18,70,54,32,30.22,30.19,3,0,10,0.00
2013-12-12,37,32,28,11,5,3,45,32,25,30.30,30.26,2,0,9,0.00
2013-12-13,46,40,36,26,19,16,63,44,30,30.20,30.17,2,0,9,0.00
2013-12-14,37,35,34,34,30,20,97,83,50,30.18,29.70,2,0,9,0.61
2013-12-15,47,38,29,40,31,24,98,76,50,29.96,29.63,5,2,19,0.00
2013-12-16,49,43,38,32,30,29,74,61,48,30.02,29.99,1,0,6,0.00
2013-12-17,60,52,42,36,33,28,68,49,35,29.94,29.77,9,2,25,0.00
2013-12-20,62,57,49,45,40,34,83,56,37,30.03,29.99,4,2,17,0.00
2013-12-21,65,56,46,59,51,44,97,85,70,30.01,29.85,5,2,18,0.00
2013-12-22,69,63,58,64,60,57,99,91,79,29.94,29.82,6,2,22,0.94
2013-12-23,42,40,37,34,30,27,72,69,65,30.09,30.05,5,2,16,0.98
2013-12-24,42,34,24,27,20,10,72,57,33,30.39,30.07,6,2,18,0.00
2013-12-25,36,26,19,12,8,4,65,48,28,30.48,30.32,2,0,10,0.00
2013-12-26,51,43,34,24,20,16,49,41,30,30.28,30.14,4,1,12,0.00
2013-12-27,50,41,34,20,17,14,53,39,24,30.33,30.27,2,0,7,0.00
2013-12-28,54,40,28,38,25,17,93,56,26,30.30,30.04,3,0,11,0.12
2013-12-29,56,44,39,48,40,38,98,87,63,30.05,29.61,6,1,18,0.78
2013-12-30,39,38,38,31,30,29,75,73,72,30.04,30.03,0,0,1,0.00
2013-12-31,46,37,30,23,20,18,69,51,35,30.27,30.13,4,0,17,0.00
2014-1-1,46,35,27,27,22,19,79,61,36,30.30,30.08,3,0,11,0.00
2014-1-2,39,37,36,37,36,31,96,95,84,29.59,29.54,2,0,13,0.34